createdAt,value
2023-02-22T00:01:36.274Z,21.89
2023-02-22T00:03:39.132Z,21.92
2023-02-22T00:05:40.569Z,21.95
2023-02-22T00:07:42.165Z,21.96
2023-02-22T00:09:43.465Z,21.93
2023-02-22T00:11:46.483Z,21.92
2023-02-22T00:13:50.397Z,21.87
2023-02-22T00:15:51.747Z,21.82
2023-02-22T00:17:53.051Z,21.79
2023-02-22T00:19:54.351Z,21.28
2023-02-22T00:21:55.684Z,21.75
2023-02-22T00:23:56.986Z,21.72
2023-02-22T00:25:58.314Z,21.71
2023-02-22T00:27:59.655Z,21.70
2023-02-22T00:30:00.974Z,21.68
2023-02-22T00:32:02.462Z,21.68
2023-02-22T00:34:03.880Z,21.71
2023-02-22T00:36:05.182Z,21.68
2023-02-22T00:38:06.523Z,21.64
2023-02-22T00:40:08.464Z,21.64
2023-02-22T00:42:09.853Z,21.67
2023-02-22T00:44:11.712Z,21.66
2023-02-22T00:46:13.081Z,21.66
2023-02-22T00:48:14.418Z,21.64
2023-02-22T00:50:15.749Z,21.39
2023-02-22T00:52:17.270Z,21.36
2023-02-22T00:54:20.105Z,21.43
2023-02-22T00:56:21.505Z,21.44
2023-02-22T00:58:22.857Z,21.46
2023-02-22T01:00:24.208Z,21.47
2023-02-22T01:02:25.568Z,21.47
2023-02-22T01:04:26.964Z,21.49
2023-02-22T01:06:29.356Z,20.68
2023-02-22T01:08:32.638Z,21.60
2023-02-22T01:10:33.952Z,21.62
2023-02-22T01:12:35.283Z,21.66
2023-02-22T01:14:36.584Z,21.65
2023-02-22T01:16:37.943Z,21.64
2023-02-22T01:18:39.296Z,21.64
2023-02-22T01:20:40.683Z,21.63
2023-02-22T01:22:42.225Z,21.69
2023-02-22T01:24:43.624Z,21.75
2023-02-22T01:26:45.482Z,21.81
2023-02-22T01:28:46.783Z,21.85
2023-02-22T01:30:48.180Z,21.84
2023-02-22T01:32:51.133Z,21.82
2023-02-22T01:34:52.505Z,21.84
2023-02-22T01:36:53.801Z,21.79
2023-02-22T01:38:55.094Z,21.76
2023-02-22T01:40:56.412Z,21.74
2023-02-22T01:42:57.809Z,21.74
2023-02-22T01:44:59.199Z,21.72
2023-02-22T01:47:00.595Z,21.70
2023-02-22T01:49:02.227Z,21.67
2023-02-22T01:51:03.649Z,21.65
2023-02-22T01:53:04.946Z,21.66
2023-02-22T01:55:06.283Z,21.62
2023-02-22T01:57:07.582Z,21.62
2023-02-22T01:59:08.920Z,21.64
2023-02-22T02:01:10.364Z,21.62
2023-02-22T02:03:11.704Z,21.61
2023-02-22T02:05:13.021Z,21.60
2023-02-22T02:07:14.377Z,21.59
2023-02-22T02:09:15.675Z,21.57
2023-02-22T02:11:17.168Z,21.58
2023-02-22T02:13:18.601Z,21.57
2023-02-22T02:15:19.934Z,21.56
2023-02-22T02:17:21.269Z,21.55
2023-02-22T02:19:22.604Z,21.53
2023-02-22T02:21:24.262Z,21.53
2023-02-22T02:23:25.503Z,21.54
2023-02-22T02:25:27.857Z,21.54
2023-02-22T02:27:29.202Z,21.54
2023-02-22T02:29:30.494Z,21.53
2023-02-22T02:31:31.893Z,21.55
2023-02-22T02:33:33.361Z,21.54
2023-02-22T02:35:34.699Z,21.58
2023-02-22T02:37:36.019Z,21.59
2023-02-22T02:39:37.319Z,21.55
2023-02-22T02:41:38.684Z,21.55
2023-02-22T02:43:40.042Z,21.58
2023-02-22T02:45:42.119Z,21.60
2023-02-22T02:47:43.451Z,21.64
2023-02-22T02:49:44.771Z,21.66
2023-02-22T02:51:46.109Z,21.69
2023-02-22T02:53:47.550Z,21.71
2023-02-22T02:55:48.855Z,21.72
2023-02-22T02:57:50.145Z,21.73
2023-02-22T02:59:51.668Z,21.75
2023-02-22T03:01:52.979Z,21.75
2023-02-22T03:03:54.288Z,21.78
2023-02-22T03:05:55.601Z,21.80
2023-02-22T03:07:56.971Z,21.80
2023-02-22T03:09:58.509Z,21.81
2023-02-22T03:12:02.318Z,21.78
2023-02-22T03:14:03.656Z,21.77
2023-02-22T03:16:05.015Z,21.76
2023-02-22T03:18:06.785Z,21.77
2023-02-22T03:20:09.709Z,21.74
2023-02-22T03:22:11.041Z,21.75
2023-02-22T03:24:12.418Z,21.74
2023-02-22T03:26:13.813Z,21.73
2023-02-22T03:28:15.160Z,21.70
2023-02-22T03:30:16.520Z,21.72
2023-02-22T03:32:17.894Z,21.72
2023-02-22T03:34:19.306Z,21.70
2023-02-22T03:36:20.642Z,21.74
2023-02-22T03:38:21.963Z,21.74
2023-02-22T03:40:26.086Z,21.71
2023-02-22T03:42:27.387Z,21.87
2023-02-22T03:44:28.900Z,21.79
2023-02-22T03:46:30.311Z,21.64
2023-02-22T03:48:31.685Z,21.46
2023-02-22T03:50:33.036Z,21.36
2023-02-22T03:52:34.932Z,21.27
2023-02-22T03:54:36.226Z,21.21
2023-02-22T03:56:37.556Z,21.31
2023-02-22T03:58:38.850Z,21.04
2023-02-22T04:00:44.513Z,21.01
2023-02-22T04:02:45.936Z,21.07
2023-02-22T04:04:47.374Z,21.05
2023-02-22T04:06:49.710Z,21.09
2023-02-22T04:08:51.089Z,21.16
2023-02-22T04:10:52.376Z,21.25
2023-02-22T04:12:54.089Z,21.34
2023-02-22T04:14:55.408Z,21.42
2023-02-22T04:16:56.753Z,21.48
2023-02-22T04:18:58.052Z,21.54
2023-02-22T04:20:59.340Z,21.59
2023-02-22T04:23:00.671Z,21.65
2023-02-22T04:25:02.171Z,21.66
2023-02-22T04:27:03.687Z,21.67
2023-02-22T04:29:05.024Z,21.68
2023-02-22T04:31:06.398Z,21.69
2023-02-22T04:33:07.741Z,21.69
2023-02-22T04:35:09.137Z,21.67
2023-02-22T04:37:10.494Z,21.64
2023-02-22T04:39:11.892Z,21.62
2023-02-22T04:41:13.185Z,21.57
2023-02-22T04:43:14.503Z,21.52
2023-02-22T04:45:15.840Z,21.49
2023-02-22T04:47:17.133Z,21.47
2023-02-22T04:49:18.438Z,21.44
2023-02-22T04:51:20.227Z,21.40
2023-02-22T04:53:21.525Z,21.36
2023-02-22T04:55:22.863Z,21.32
2023-02-22T04:57:24.150Z,21.30
2023-02-22T04:59:25.488Z,21.27
2023-02-22T05:01:26.829Z,21.26
2023-02-22T05:03:28.164Z,21.24
2023-02-22T05:05:29.526Z,21.20
2023-02-22T05:07:30.868Z,21.16
2023-02-22T05:09:32.276Z,21.11
2023-02-22T05:11:34.076Z,21.07
2023-02-22T05:13:35.474Z,21.00
2023-02-22T05:15:36.811Z,20.97
2023-02-22T05:17:38.139Z,20.94
2023-02-22T05:19:39.484Z,20.92
2023-02-22T05:21:40.822Z,20.92
2023-02-22T05:23:42.152Z,20.94
2023-02-22T05:25:43.458Z,20.94
2023-02-22T05:27:44.775Z,20.96
2023-02-22T05:29:46.149Z,20.98
2023-02-22T05:31:47.597Z,20.98
2023-02-22T05:33:49.036Z,21.00
2023-02-22T05:35:50.676Z,21.02
2023-02-22T05:37:52.043Z,21.04
2023-02-22T05:39:53.338Z,21.08
2023-02-22T05:41:54.656Z,21.15
2023-02-22T05:43:55.949Z,21.21
2023-02-22T05:45:57.239Z,21.26
2023-02-22T05:47:58.585Z,21.32
2023-02-22T05:49:59.872Z,21.36
2023-02-22T05:52:01.225Z,21.42
2023-02-22T05:54:02.520Z,21.44
2023-02-22T05:56:03.871Z,21.47
2023-02-22T05:58:05.912Z,21.51
2023-02-22T06:00:10.241Z,21.50
2023-02-22T06:02:11.730Z,21.50
2023-02-22T06:04:13.030Z,21.50
2023-02-22T06:06:14.385Z,21.49
2023-02-22T06:08:15.715Z,21.47
2023-02-22T06:10:17.026Z,21.43
2023-02-22T06:12:18.356Z,21.41
2023-02-22T06:14:22.482Z,21.37
2023-02-22T06:16:24.005Z,21.33
2023-02-22T06:18:26.707Z,21.32
2023-02-22T06:20:28.029Z,21.29
2023-02-22T06:22:29.324Z,21.26
2023-02-22T06:24:30.668Z,21.24
2023-02-22T06:26:31.959Z,21.20
2023-02-22T06:28:33.262Z,21.18
2023-02-22T06:30:34.673Z,21.15
2023-02-22T06:32:35.999Z,21.14
2023-02-22T06:34:37.355Z,21.11
2023-02-22T06:36:38.665Z,21.10
2023-02-22T06:38:39.976Z,21.11
2023-02-22T06:40:41.415Z,21.10
2023-02-22T06:42:42.708Z,21.07
2023-02-22T06:44:44.009Z,21.07
2023-02-22T06:46:45.314Z,21.05
2023-02-22T06:48:46.635Z,21.04
2023-02-22T06:50:47.931Z,21.05
2023-02-22T06:52:49.305Z,21.04
2023-02-22T06:54:50.605Z,21.04
2023-02-22T06:56:52.000Z,21.02
2023-02-22T06:58:53.295Z,21.03
2023-02-22T07:00:54.901Z,21.03
2023-02-22T07:02:56.222Z,21.03
2023-02-22T07:04:57.515Z,21.06
2023-02-22T07:06:58.841Z,21.08
2023-02-22T07:09:01.094Z,21.08
2023-02-22T07:11:02.439Z,21.12
2023-02-22T07:13:03.739Z,21.17
2023-02-22T07:15:05.031Z,21.21
2023-02-22T07:17:07.604Z,21.26
2023-02-22T07:19:09.910Z,21.32
2023-02-22T07:21:11.217Z,21.36
2023-02-22T07:23:12.528Z,21.38
2023-02-22T07:25:13.867Z,21.41
2023-02-22T07:27:15.195Z,21.42
2023-02-22T07:29:16.519Z,21.42
2023-02-22T07:31:18.301Z,21.41
2023-02-22T07:33:19.882Z,21.40
2023-02-22T07:35:21.183Z,21.40
2023-02-22T07:37:22.481Z,21.36
2023-02-22T07:39:23.777Z,21.33
2023-02-22T07:41:25.118Z,21.31
2023-02-22T07:43:26.454Z,21.28
2023-02-22T07:45:27.947Z,21.26
2023-02-22T07:47:29.261Z,21.22
2023-02-22T07:49:30.556Z,21.20
2023-02-22T07:51:31.855Z,21.19
2023-02-22T07:53:33.640Z,21.15
2023-02-22T07:55:34.956Z,21.12
2023-02-22T07:57:36.255Z,21.10
2023-02-22T07:59:37.549Z,21.09
2023-02-22T08:01:38.920Z,21.09
2023-02-22T08:03:40.292Z,21.07
2023-02-22T08:05:41.657Z,21.05
2023-02-22T08:07:43.304Z,21.04
2023-02-22T08:09:44.613Z,21.02
2023-02-22T08:11:45.912Z,21.03
2023-02-22T08:13:47.217Z,21.02
2023-02-22T08:15:48.515Z,20.98
2023-02-22T08:17:49.809Z,20.99
2023-02-22T08:19:51.108Z,21.01
2023-02-22T08:21:52.727Z,21.00
2023-02-22T08:23:56.842Z,21.00
2023-02-22T08:25:58.256Z,21.01
2023-02-22T08:28:02.224Z,21.04
2023-02-22T08:30:03.508Z,21.07
2023-02-22T08:32:04.953Z,21.10
2023-02-22T08:34:06.411Z,20.25
2023-02-22T08:36:07.703Z,21.18
2023-02-22T08:38:08.996Z,21.21
2023-02-22T08:40:10.972Z,21.27
2023-02-22T08:42:13.167Z,21.31
2023-02-22T08:44:14.459Z,21.34
2023-02-22T08:46:15.820Z,21.38
2023-02-22T08:48:17.423Z,21.40
2023-02-22T08:50:18.720Z,21.40
2023-02-22T08:52:20.279Z,21.40
2023-02-22T08:54:22.685Z,21.38
2023-02-22T08:56:23.993Z,21.37
2023-02-22T08:58:25.352Z,21.34
2023-02-22T09:00:26.645Z,21.30
2023-02-22T09:02:27.934Z,21.29
2023-02-22T09:04:29.244Z,21.26
2023-02-22T09:06:30.570Z,21.23
2023-02-22T09:08:31.910Z,21.21
2023-02-22T09:10:33.219Z,21.18
2023-02-22T09:12:34.555Z,21.15
2023-02-22T09:14:35.956Z,21.12
2023-02-22T09:16:38.123Z,21.08
2023-02-22T09:18:44.305Z,21.05
2023-02-22T09:20:46.039Z,21.01
2023-02-22T09:22:47.326Z,21.00
2023-02-22T09:24:48.633Z,20.98
2023-02-22T09:26:54.161Z,20.95
2023-02-22T09:28:55.532Z,20.93
2023-02-22T09:30:56.850Z,20.90
2023-02-22T09:32:58.288Z,20.91
2023-02-22T09:34:59.717Z,20.89
2023-02-22T09:37:01.036Z,20.86
2023-02-22T09:39:02.431Z,20.86
2023-02-22T09:41:03.742Z,20.85
2023-02-22T09:43:05.113Z,20.84
2023-02-22T09:45:06.441Z,20.85
2023-02-22T09:47:10.679Z,20.85
2023-02-22T09:49:13.893Z,20.86
2023-02-22T09:51:15.230Z,20.88
2023-02-22T09:53:17.875Z,20.92
2023-02-22T09:55:19.199Z,20.96
2023-02-22T09:57:20.515Z,20.98
2023-02-22T09:59:21.888Z,21.02
2023-02-22T10:01:23.226Z,21.08
2023-02-22T10:03:24.593Z,21.13
2023-02-22T10:05:27.602Z,21.15
2023-02-22T10:07:28.964Z,21.18
2023-02-22T10:09:30.476Z,21.18
2023-02-22T10:11:31.763Z,21.19
2023-02-22T10:13:34.703Z,21.24
2023-02-22T10:15:37.142Z,21.26
2023-02-22T10:17:39.335Z,21.29
2023-02-22T10:19:41.111Z,21.29
2023-02-22T10:21:42.618Z,21.29
2023-02-22T10:23:43.918Z,21.29
2023-02-22T10:25:45.233Z,21.28
2023-02-22T10:27:47.914Z,21.25
2023-02-22T10:29:49.217Z,21.23
2023-02-22T10:31:50.675Z,21.21
2023-02-22T10:33:52.044Z,21.22
2023-02-22T10:35:53.701Z,21.19
2023-02-22T10:37:55.008Z,21.17
2023-02-22T10:39:56.336Z,21.13
2023-02-22T10:41:57.700Z,21.08
2023-02-22T10:43:59.027Z,21.07
2023-02-22T10:46:05.057Z,21.04
2023-02-22T10:48:08.628Z,21.00
2023-02-22T10:50:10.028Z,20.98
2023-02-22T10:52:11.321Z,20.96
2023-02-22T10:54:12.620Z,20.94
2023-02-22T10:56:14.078Z,20.92
2023-02-22T10:58:15.387Z,20.89
2023-02-22T11:00:19.821Z,20.87
2023-02-22T11:02:21.298Z,20.86
2023-02-22T11:04:22.613Z,20.83
2023-02-22T11:06:23.935Z,20.83
2023-02-22T11:08:25.308Z,20.80
2023-02-22T11:10:27.405Z,20.80
2023-02-22T11:12:28.752Z,20.80
2023-02-22T11:14:30.257Z,20.78
2023-02-22T11:16:31.634Z,20.78
2023-02-22T11:18:35.785Z,20.77
2023-02-22T11:20:38.508Z,20.79
2023-02-22T11:22:41.082Z,20.80
2023-02-22T11:24:49.030Z,19.93
2023-02-22T11:26:50.771Z,20.81
2023-02-22T11:28:56.161Z,20.80
2023-02-22T11:30:57.619Z,20.83
2023-02-22T11:32:59.077Z,20.84
2023-02-22T11:35:09.015Z,20.84
2023-02-22T11:37:10.786Z,20.87
2023-02-22T11:39:12.236Z,20.92
2023-02-22T11:41:16.712Z,20.91
2023-02-22T11:43:18.331Z,20.93
2023-02-22T11:45:21.377Z,20.95
2023-02-22T11:47:23.635Z,20.95
2023-02-22T11:49:25.023Z,20.98
2023-02-22T11:51:26.324Z,20.98
2023-02-22T11:53:27.822Z,20.98
2023-02-22T11:55:42.284Z,21.00
2023-02-22T11:57:46.582Z,21.01
2023-02-22T11:59:47.977Z,21.03
2023-02-22T12:01:49.327Z,21.04
2023-02-22T12:03:50.676Z,21.07
2023-02-22T12:06:02.491Z,21.07
2023-02-22T12:08:17.536Z,21.09
2023-02-22T12:10:20.200Z,21.10
2023-02-22T12:12:21.522Z,21.09
2023-02-22T12:14:22.864Z,21.09
2023-02-22T12:16:24.820Z,21.07
2023-02-22T12:18:26.111Z,21.07
2023-02-22T12:20:27.449Z,21.05
2023-02-22T12:22:28.773Z,21.06
2023-02-22T12:24:30.073Z,21.04
2023-02-22T12:26:31.387Z,21.02
2023-02-22T12:28:32.700Z,21.01
2023-02-22T12:30:34.175Z,21.00
2023-02-22T12:32:38.490Z,21.00
2023-02-22T12:34:41.411Z,20.97
2023-02-22T12:36:42.866Z,20.96
2023-02-22T12:38:44.380Z,20.98
2023-02-22T12:40:45.754Z,20.96
2023-02-22T12:42:47.071Z,20.96
2023-02-22T12:44:48.835Z,20.95
2023-02-22T12:46:50.757Z,20.94
2023-02-22T12:48:52.081Z,20.92
2023-02-22T12:50:53.423Z,20.94
2023-02-22T12:52:54.743Z,20.93
2023-02-22T12:54:56.419Z,20.90
2023-02-22T12:56:57.733Z,20.89
2023-02-22T12:59:00.117Z,20.88
2023-02-22T13:01:01.457Z,20.87
2023-02-22T13:03:03.206Z,20.87
2023-02-22T13:05:04.528Z,20.88
2023-02-22T13:07:05.881Z,20.89
2023-02-22T13:09:07.215Z,20.86
2023-02-22T13:11:08.530Z,20.88
2023-02-22T13:13:10.156Z,20.90
2023-02-22T13:15:12.814Z,20.91
2023-02-22T13:17:14.855Z,20.93
2023-02-22T13:19:16.158Z,20.93
2023-02-22T13:21:17.836Z,20.96
2023-02-22T13:23:19.491Z,20.98
2023-02-22T13:25:20.824Z,20.98
2023-02-22T13:27:22.788Z,20.97
2023-02-22T13:29:24.710Z,20.98
2023-02-22T13:31:26.739Z,20.99
2023-02-22T13:33:28.284Z,21.01
2023-02-22T13:35:29.762Z,21.00
2023-02-22T13:37:31.095Z,21.01
2023-02-22T13:39:32.421Z,21.00
2023-02-22T13:41:33.708Z,21.01
2023-02-22T13:43:35.003Z,21.00
2023-02-22T13:45:36.348Z,21.00
2023-02-22T13:47:37.907Z,21.00
2023-02-22T13:49:39.216Z,21.00
2023-02-22T13:51:40.579Z,21.01
2023-02-22T13:53:43.787Z,20.97
2023-02-22T13:55:45.139Z,20.96
2023-02-22T13:57:48.712Z,20.86
2023-02-22T13:59:50.038Z,19.55
2023-02-22T14:01:53.408Z,19.29
2023-02-22T14:03:54.793Z,20.20
2023-02-22T14:05:57.647Z,21.22
2023-02-22T14:07:58.956Z,21.53
2023-02-22T14:10:02.299Z,21.99
2023-02-22T14:12:03.623Z,22.23
2023-02-22T14:14:04.937Z,22.16
2023-02-22T14:16:06.312Z,22.38
2023-02-22T14:18:10.682Z,22.47
2023-02-22T14:20:14.805Z,22.26
2023-02-22T14:22:16.261Z,22.12
2023-02-22T14:24:18.378Z,22.03
2023-02-22T14:26:19.903Z,22.01
2023-02-22T14:28:21.365Z,22.03
2023-02-22T14:30:24.830Z,22.00
2023-02-22T14:32:30.461Z,21.99
2023-02-22T14:34:31.831Z,22.44
2023-02-22T14:36:34.179Z,22.31
2023-02-22T14:38:35.492Z,22.26
2023-02-22T14:40:36.833Z,22.67
2023-02-22T14:42:38.392Z,22.55
2023-02-22T14:44:40.087Z,22.31
2023-02-22T14:46:41.670Z,22.23
2023-02-22T14:48:43.161Z,22.20
2023-02-22T14:50:44.582Z,22.17
2023-02-22T14:52:46.519Z,22.18
2023-02-22T14:54:47.874Z,22.25
2023-02-22T14:56:49.260Z,22.38
2023-02-22T14:58:50.603Z,21.98
2023-02-22T15:00:53.023Z,21.77
2023-02-22T15:02:57.360Z,21.65
2023-02-22T15:04:58.795Z,21.61
2023-02-22T15:07:00.143Z,21.59
2023-02-22T15:09:02.183Z,21.54
2023-02-22T15:11:03.547Z,21.54
2023-02-22T15:13:13.993Z,21.53
2023-02-22T15:15:15.300Z,21.53
2023-02-22T15:17:16.600Z,21.50
2023-02-22T15:19:25.128Z,21.50
2023-02-22T15:21:26.956Z,21.52
2023-02-22T15:23:30.366Z,21.52
2023-02-22T15:25:31.847Z,21.52
2023-02-22T15:27:37.166Z,21.51
2023-02-22T15:29:39.007Z,21.51
2023-02-22T15:31:47.095Z,21.50
2023-02-22T15:33:53.220Z,21.50
2023-02-22T15:35:54.526Z,21.48
2023-02-22T15:37:55.875Z,21.37
2023-02-22T15:40:00.260Z,21.33
2023-02-22T15:42:02.068Z,21.30
2023-02-22T15:44:17.546Z,21.29
2023-02-22T15:46:25.554Z,21.28
2023-02-22T15:48:31.674Z,21.28
2023-02-22T15:50:35.994Z,21.24
2023-02-22T15:52:43.490Z,21.74
2023-02-22T15:54:44.820Z,22.07
2023-02-22T15:56:46.132Z,22.33
2023-02-22T15:58:47.728Z,22.41
2023-02-22T16:00:50.006Z,22.56
2023-02-22T16:02:51.395Z,22.43
2023-02-22T16:04:59.589Z,22.49
2023-02-22T16:07:01.234Z,22.42
2023-02-22T16:09:02.541Z,22.42
2023-02-22T16:11:03.881Z,22.56
2023-02-22T16:13:05.226Z,22.32
2023-02-22T16:15:06.614Z,22.02
2023-02-22T16:17:07.971Z,21.82
2023-02-22T16:19:09.270Z,21.71
2023-02-22T16:21:12.905Z,22.11
2023-02-22T16:23:14.272Z,22.37
2023-02-22T16:25:16.661Z,22.44
2023-02-22T16:27:18.678Z,22.49
2023-02-22T16:29:20.036Z,22.54
2023-02-22T16:31:21.746Z,22.55
2023-02-22T16:33:25.891Z,22.66
2023-02-22T16:35:28.824Z,22.73
2023-02-22T16:37:30.410Z,22.70
2023-02-22T16:39:36.080Z,22.64
2023-02-22T16:41:37.435Z,22.40
2023-02-22T16:43:38.977Z,22.23
2023-02-22T16:45:42.493Z,22.27
2023-02-22T16:47:44.011Z,22.45
2023-02-22T16:49:45.303Z,22.17
2023-02-22T16:51:46.759Z,21.93
2023-02-22T16:53:48.865Z,21.76
2023-02-22T16:55:50.291Z,21.67
2023-02-22T16:57:51.614Z,21.64
2023-02-22T16:59:58.362Z,21.61
2023-02-22T17:02:07.510Z,21.59
2023-02-22T17:04:08.862Z,21.66
2023-02-22T17:06:10.549Z,22.37
2023-02-22T17:08:11.851Z,22.36
2023-02-22T17:10:13.152Z,22.34
2023-02-22T17:12:14.601Z,22.76
2023-02-22T17:14:15.936Z,22.70
2023-02-22T17:16:17.765Z,22.52
2023-02-22T17:18:22.722Z,22.47
2023-02-22T17:20:30.120Z,22.63
2023-02-22T17:22:31.523Z,22.42
2023-02-22T17:24:34.080Z,22.43
2023-02-22T17:26:35.384Z,22.62
2023-02-22T17:28:36.716Z,22.75
2023-02-22T17:30:38.304Z,22.87
2023-02-22T17:32:39.650Z,22.87
2023-02-22T17:34:40.947Z,22.88
2023-02-22T17:36:42.293Z,22.95
2023-02-22T17:38:43.627Z,23.18
2023-02-22T17:40:45.329Z,22.64
2023-02-22T17:42:49.291Z,22.26
2023-02-22T17:44:50.577Z,22.56
2023-02-22T17:46:53.041Z,22.72
2023-02-22T17:49:00.101Z,22.90
2023-02-22T17:51:02.147Z,22.70
2023-02-22T17:53:03.578Z,22.28
2023-02-22T17:55:04.871Z,22.06
2023-02-22T17:57:06.177Z,21.90
2023-02-22T17:59:14.775Z,22.30
2023-02-22T18:01:18.275Z,22.72
2023-02-22T18:03:21.736Z,22.77
2023-02-22T18:05:23.111Z,22.76
2023-02-22T18:07:25.453Z,22.60
2023-02-22T18:09:26.823Z,22.69
2023-02-22T18:11:32.741Z,22.69
2023-02-22T18:13:34.081Z,22.75
2023-02-22T18:15:35.648Z,23.32
2023-02-22T18:17:36.995Z,23.21
2023-02-22T18:19:38.707Z,22.93
2023-02-22T18:21:40.039Z,23.06
2023-02-22T18:23:41.364Z,22.57
2023-02-22T18:25:43.530Z,22.13
2023-02-22T18:27:44.855Z,22.28
2023-02-22T18:29:46.147Z,22.40
2023-02-22T18:31:47.440Z,22.44
2023-02-22T18:33:48.785Z,22.61
2023-02-22T18:35:52.299Z,22.61
2023-02-22T18:37:56.219Z,22.57
2023-02-22T18:39:57.515Z,22.56
2023-02-22T18:42:00.045Z,22.62
2023-02-22T18:44:03.220Z,22.63
2023-02-22T18:46:04.574Z,22.65
2023-02-22T18:48:05.951Z,22.96
2023-02-22T18:50:13.085Z,22.79
2023-02-22T18:52:18.354Z,23.18
2023-02-22T18:54:19.726Z,23.49
2023-02-22T18:56:21.872Z,23.15
2023-02-22T18:58:23.520Z,23.30
2023-02-22T19:00:28.649Z,23.18
2023-02-22T19:02:36.221Z,23.52
2023-02-22T19:04:40.972Z,23.22
2023-02-22T19:06:45.222Z,22.85
2023-02-22T19:08:52.935Z,22.82
2023-02-22T19:10:54.243Z,22.45
2023-02-22T19:12:55.583Z,22.18
2023-02-22T19:14:59.692Z,22.03
2023-02-22T19:17:02.791Z,21.93
2023-02-22T19:19:04.171Z,21.82
2023-02-22T19:21:08.605Z,21.75
2023-02-22T19:23:13.108Z,21.70
2023-02-22T19:25:14.406Z,21.65
2023-02-22T19:27:15.703Z,21.47
2023-02-22T19:29:22.200Z,21.49
2023-02-22T19:31:26.310Z,21.52
2023-02-22T19:33:27.801Z,21.57
2023-02-22T19:35:33.146Z,21.59
2023-02-22T19:37:35.555Z,21.61
2023-02-22T19:39:38.431Z,21.62
2023-02-22T19:41:39.724Z,21.66
2023-02-22T19:43:41.059Z,21.69
2023-02-22T19:45:45.164Z,21.69
2023-02-22T19:47:46.554Z,21.71
2023-02-22T19:49:47.898Z,21.71
2023-02-22T19:51:49.326Z,21.74
2023-02-22T19:53:53.649Z,21.74
2023-02-22T19:55:54.948Z,21.76
2023-02-22T19:57:56.248Z,22.31
2023-02-22T19:59:57.699Z,21.90
2023-02-22T20:01:59.095Z,22.09
2023-02-22T20:04:00.538Z,23.07
2023-02-22T20:06:01.939Z,23.40
2023-02-22T20:08:03.257Z,23.39
2023-02-22T20:10:04.640Z,23.33
2023-02-22T20:12:08.832Z,23.20
2023-02-22T20:14:10.160Z,23.54
2023-02-22T20:16:15.596Z,23.27
2023-02-22T20:18:17.056Z,23.16
2023-02-22T20:20:21.279Z,23.53
2023-02-22T20:22:22.574Z,23.73
2023-02-22T20:24:23.897Z,23.93
2023-02-22T20:26:25.220Z,23.60
2023-02-22T20:28:26.575Z,23.21
2023-02-22T20:30:27.872Z,23.05
2023-02-22T20:32:30.409Z,23.00
2023-02-22T20:34:33.331Z,23.05
2023-02-22T20:36:37.619Z,23.01
2023-02-22T20:38:38.948Z,22.97
2023-02-22T20:40:41.127Z,23.40
2023-02-22T20:42:44.776Z,23.16
2023-02-22T20:44:49.486Z,23.09
2023-02-22T20:46:50.839Z,23.00
2023-02-22T20:48:55.383Z,22.90
2023-02-22T20:50:56.717Z,22.54
2023-02-22T20:52:58.867Z,22.56
2023-02-22T20:55:01.832Z,22.68
2023-02-22T20:57:03.225Z,22.79
2023-02-22T20:59:04.568Z,22.87
2023-02-22T21:01:05.978Z,23.11
2023-02-22T21:03:07.334Z,23.53
2023-02-22T21:05:09.647Z,23.19
2023-02-22T21:07:11.003Z,23.31
2023-02-22T21:09:12.344Z,23.12
2023-02-22T21:11:13.716Z,23.04
2023-02-22T21:13:18.051Z,23.02
2023-02-22T21:15:19.359Z,23.47
2023-02-22T21:17:28.754Z,23.14
2023-02-22T21:19:32.015Z,23.19
2023-02-22T21:21:33.320Z,23.01
2023-02-22T21:23:34.618Z,23.00
2023-02-22T21:25:35.917Z,23.02
2023-02-22T21:27:37.207Z,23.02
2023-02-22T21:29:38.560Z,23.04
2023-02-22T21:31:40.208Z,22.91
2023-02-22T21:33:41.927Z,22.59
2023-02-22T21:35:43.441Z,22.37
2023-02-22T21:37:46.293Z,22.21
2023-02-22T21:39:47.601Z,22.13
2023-02-22T21:41:48.898Z,22.05
2023-02-22T21:43:56.331Z,21.87
2023-02-22T21:46:02.326Z,19.35
2023-02-22T21:48:03.643Z,19.89
2023-02-22T21:50:05.416Z,21.01
2023-02-22T21:52:07.863Z,21.43
2023-02-22T21:54:09.190Z,21.59
2023-02-22T21:56:10.495Z,21.33
2023-02-22T21:58:12.219Z,21.00
2023-02-22T22:00:29.027Z,21.38
2023-02-22T22:02:30.350Z,21.73
2023-02-22T22:04:31.685Z,21.92
2023-02-22T22:06:38.735Z,22.04
2023-02-22T22:08:40.137Z,22.13
2023-02-22T22:10:41.424Z,22.19
2023-02-22T22:12:46.179Z,22.26
2023-02-22T22:14:49.329Z,22.27
2023-02-22T22:16:50.684Z,22.29
2023-02-22T22:18:51.990Z,22.31
2023-02-22T22:20:53.732Z,22.32
2023-02-22T22:22:55.088Z,22.33
2023-02-22T22:24:56.470Z,22.32
2023-02-22T22:27:03.542Z,22.28
2023-02-22T22:29:04.908Z,22.23
2023-02-22T22:31:06.264Z,22.19
2023-02-22T22:33:11.254Z,22.15
2023-02-22T22:35:14.628Z,22.10
2023-02-22T22:37:16.286Z,22.07
2023-02-22T22:39:20.913Z,22.05
2023-02-22T22:41:22.336Z,22.02
2023-02-22T22:43:23.643Z,21.99
2023-02-22T22:45:25.913Z,21.96
2023-02-22T22:47:27.243Z,21.92
2023-02-22T22:49:31.217Z,21.89
2023-02-22T22:51:33.723Z,21.87
2023-02-22T22:53:35.091Z,21.86
2023-02-22T22:55:36.396Z,21.83
2023-02-22T22:57:37.754Z,21.81
2023-02-22T22:59:39.745Z,21.77
2023-02-22T23:01:41.131Z,21.74
2023-02-22T23:03:43.518Z,21.71
2023-02-22T23:05:46.269Z,21.67
2023-02-22T23:07:47.610Z,21.67
2023-02-22T23:09:48.923Z,21.66
2023-02-22T23:11:51.003Z,21.65
2023-02-22T23:13:52.445Z,21.63
2023-02-22T23:15:54.771Z,21.60
2023-02-22T23:17:56.301Z,21.58
2023-02-22T23:19:57.713Z,21.57
2023-02-22T23:21:59.333Z,21.54
2023-02-22T23:24:00.631Z,21.54
2023-02-22T23:26:01.949Z,21.52
2023-02-22T23:28:03.308Z,21.50
2023-02-22T23:30:04.607Z,21.55
2023-02-22T23:32:06.065Z,21.53
2023-02-22T23:34:11.085Z,21.52
2023-02-22T23:36:12.502Z,21.51
2023-02-22T23:38:13.849Z,21.52
2023-02-22T23:40:18.786Z,21.52
2023-02-22T23:42:22.964Z,21.52
2023-02-22T23:44:24.273Z,21.54
2023-02-22T23:46:27.002Z,21.53
2023-02-22T23:48:30.125Z,21.57
2023-02-22T23:50:31.469Z,21.59
2023-02-22T23:52:32.801Z,21.60
2023-02-22T23:54:40.214Z,21.62
2023-02-22T23:56:47.179Z,21.62
2023-02-22T23:58:50.459Z,21.66
